sensor_id;sensor_type;location;lat;lon;timestamp;P1;durP1;ratioP1;P2;durP2;ratioP2
71290;SDS011;59073;51.994;4.448;2022-11-27T01:11:00;3.61;;;3.48;;
71290;SDS011;59073;51.994;4.448;2022-11-27T01:24:35;3.52;;;3.31;;
71290;SDS011;59073;51.994;4.448;2022-11-27T01:48:08;2.89;;;2.80;;
71290;SDS011;59073;51.994;4.448;2022-11-27T02:01:28;3.27;;;3.14;;
71290;SDS011;59073;51.994;4.448;2022-11-27T02:12:22;3.20;;;2.95;;
71290;SDS011;59073;51.994;4.448;2022-11-27T02:29:32;3.05;;;2.81;;
71290;SDS011;59073;51.994;4.448;2022-11-27T02:36:23;2.73;;;2.64;;
71290;SDS011;59073;51.994;4.448;2022-11-27T02:39:44;2.72;;;2.64;;
71290;SDS011;59073;51.994;4.448;2022-11-27T02:46:14;2.74;;;2.62;;
71290;SDS011;59073;51.994;4.448;2022-11-27T03:03:57;2.97;;;2.79;;
71290;SDS011;59073;51.994;4.448;2022-11-27T03:30:34;2.60;;;2.46;;
71290;SDS011;59073;51.994;4.448;2022-11-27T03:34:04;2.73;;;2.55;;
71290;SDS011;59073;51.994;4.448;2022-11-27T03:43:54;2.87;;;2.65;;
71290;SDS011;59073;51.994;4.448;2022-11-27T04:15:35;2.32;;;2.23;;
71290;SDS011;59073;51.994;4.448;2022-11-27T04:19:06;2.69;;;2.55;;
71290;SDS011;59073;51.994;4.448;2022-11-27T06:15:37;2.07;;;1.91;;
71290;SDS011;59073;51.994;4.448;2022-11-27T06:25:39;2.22;;;2.06;;
71290;SDS011;59073;51.994;4.448;2022-11-27T07:15:51;2.01;;;1.91;;
71290;SDS011;59073;51.994;4.448;2022-11-27T08:14:22;2.35;;;2.28;;
71290;SDS011;59073;51.994;4.448;2022-11-27T08:16:56;2.03;;;1.96;;
71290;SDS011;59073;51.994;4.448;2022-11-27T08:19:47;2.38;;;2.30;;
71290;SDS011;59073;51.994;4.448;2022-11-27T08:35:04;2.62;;;2.51;;
71290;SDS011;59073;51.994;4.448;2022-11-27T08:37:45;2.50;;;2.40;;
71290;SDS011;59073;51.994;4.448;2022-11-27T08:44:40;2.38;;;2.31;;
71290;SDS011;59073;51.994;4.448;2022-11-27T08:51:11;2.45;;;2.39;;
71290;SDS011;59073;51.994;4.448;2022-11-27T08:53:47;2.59;;;2.50;;
71290;SDS011;59073;51.994;4.448;2022-11-27T08:56:21;2.57;;;2.48;;
71290;SDS011;59073;51.994;4.448;2022-11-27T08:59:01;2.63;;;2.54;;
71290;SDS011;59073;51.994;4.448;2022-11-27T09:01:29;2.72;;;2.67;;
71290;SDS011;59073;51.994;4.448;2022-11-27T09:04:05;2.49;;;2.43;;
71290;SDS011;59073;51.994;4.448;2022-11-27T09:07:08;2.84;;;2.75;;
71290;SDS011;59073;51.994;4.448;2022-11-27T09:09:54;2.57;;;2.51;;
71290;SDS011;59073;51.994;4.448;2022-11-27T09:23:25;2.51;;;2.46;;
71290;SDS011;59073;51.994;4.448;2022-11-27T09:26:30;2.64;;;2.57;;
71290;SDS011;59073;51.994;4.448;2022-11-27T09:29:50;2.56;;;2.50;;
71290;SDS011;59073;51.994;4.448;2022-11-27T09:32:28;2.68;;;2.65;;
71290;SDS011;59073;51.994;4.448;2022-11-27T09:35:18;3.00;;;2.94;;
71290;SDS011;59073;51.994;4.448;2022-11-27T09:48:42;2.62;;;2.55;;
71290;SDS011;59073;51.994;4.448;2022-11-27T09:55:38;2.96;;;2.94;;
71290;SDS011;59073;51.994;4.448;2022-11-27T10:18:39;2.82;;;2.81;;
71290;SDS011;59073;51.994;4.448;2022-11-27T10:31:17;3.28;;;3.17;;
71290;SDS011;59073;51.994;4.448;2022-11-27T10:34:40;3.11;;;3.07;;
71290;SDS011;59073;51.994;4.448;2022-11-27T10:37:14;3.17;;;3.14;;
71290;SDS011;59073;51.994;4.448;2022-11-27T10:39:48;3.20;;;3.18;;
71290;SDS011;59073;51.994;4.448;2022-11-27T10:44:59;2.95;;;2.92;;
71290;SDS011;59073;51.994;4.448;2022-11-27T10:47:29;3.40;;;3.34;;
71290;SDS011;59073;51.994;4.448;2022-11-27T10:49:56;3.18;;;3.12;;
71290;SDS011;59073;51.994;4.448;2022-11-27T10:52:21;3.17;;;3.11;;
71290;SDS011;59073;51.994;4.448;2022-11-27T10:55:08;3.69;;;3.64;;
71290;SDS011;59073;51.994;4.448;2022-11-27T10:57:47;3.23;;;3.15;;
71290;SDS011;59073;51.994;4.448;2022-11-27T11:00:26;3.21;;;3.15;;
71290;SDS011;59073;51.994;4.448;2022-11-27T11:02:59;3.28;;;3.24;;
71290;SDS011;59073;51.994;4.448;2022-11-27T11:05:26;3.43;;;3.40;;
71290;SDS011;59073;51.994;4.448;2022-11-27T11:08:00;3.30;;;3.27;;
71290;SDS011;59073;51.994;4.448;2022-11-27T11:13:25;3.42;;;3.40;;
71290;SDS011;59073;51.994;4.448;2022-11-27T11:15:55;3.30;;;3.28;;
71290;SDS011;59073;51.994;4.448;2022-11-27T11:18:27;3.11;;;3.09;;
71290;SDS011;59073;51.994;4.448;2022-11-27T11:21:02;3.52;;;3.49;;
71290;SDS011;59073;51.994;4.448;2022-11-27T11:23:35;3.59;;;3.57;;
71290;SDS011;59073;51.994;4.448;2022-11-27T11:26:04;3.62;;;3.60;;
71290;SDS011;59073;51.994;4.448;2022-11-27T11:28:43;3.64;;;3.60;;
71290;SDS011;59073;51.994;4.448;2022-11-27T11:31:17;3.55;;;3.52;;
71290;SDS011;59073;51.994;4.448;2022-11-27T11:33:50;3.89;;;3.85;;
71290;SDS011;59073;51.994;4.448;2022-11-27T11:36:25;3.76;;;3.74;;
71290;SDS011;59073;51.994;4.448;2022-11-27T11:38:51;3.64;;;3.63;;
71290;SDS011;59073;51.994;4.448;2022-11-27T11:41:17;3.93;;;3.91;;
71290;SDS011;59073;51.994;4.448;2022-11-27T11:44:00;3.73;;;3.70;;
71290;SDS011;59073;51.994;4.448;2022-11-27T11:46:27;3.80;;;3.79;;
71290;SDS011;59073;51.994;4.448;2022-11-27T11:49:01;4.16;;;4.15;;
71290;SDS011;59073;51.994;4.448;2022-11-27T12:00:10;4.00;;;3.97;;
71290;SDS011;59073;51.994;4.448;2022-11-27T12:02:42;3.83;;;3.80;;
71290;SDS011;59073;51.994;4.448;2022-11-27T12:08:41;3.53;;;3.53;;
71290;SDS011;59073;51.994;4.448;2022-11-27T12:11:20;3.63;;;3.61;;
71290;SDS011;59073;51.994;4.448;2022-11-27T12:19:40;3.85;;;3.84;;
71290;SDS011;59073;51.994;4.448;2022-11-27T12:30:35;3.82;;;3.82;;
71290;SDS011;59073;51.994;4.448;2022-11-27T12:44:44;4.06;;;4.06;;
71290;SDS011;59073;51.994;4.448;2022-11-27T12:47:24;3.92;;;3.92;;
71290;SDS011;59073;51.994;4.448;2022-11-27T12:50:03;3.69;;;3.68;;
71290;SDS011;59073;51.994;4.448;2022-11-27T12:52:38;3.79;;;3.78;;
71290;SDS011;59073;51.994;4.448;2022-11-27T12:55:28;3.93;;;3.92;;
71290;SDS011;59073;51.994;4.448;2022-11-27T12:58:08;3.57;;;3.56;;
71290;SDS011;59073;51.994;4.448;2022-11-27T13:00:53;3.68;;;3.68;;
71290;SDS011;59073;51.994;4.448;2022-11-27T13:03:33;3.83;;;3.83;;
71290;SDS011;59073;51.994;4.448;2022-11-27T13:06:11;3.89;;;3.88;;
71290;SDS011;59073;51.994;4.448;2022-11-27T13:11:33;3.67;;;3.67;;
71290;SDS011;59073;51.994;4.448;2022-11-27T13:14:09;3.57;;;3.57;;
71290;SDS011;59073;51.994;4.448;2022-11-27T13:16:51;3.61;;;3.61;;
71290;SDS011;59073;51.994;4.448;2022-11-27T13:22:22;4.05;;;4.05;;
71290;SDS011;59073;51.994;4.448;2022-11-27T13:24:59;4.20;;;4.19;;
71290;SDS011;59073;51.994;4.448;2022-11-27T13:27:26;4.37;;;4.37;;
71290;SDS011;59073;51.994;4.448;2022-11-27T13:30:05;3.63;;;3.63;;
71290;SDS011;59073;51.994;4.448;2022-11-27T13:32:36;3.55;;;3.55;;
71290;SDS011;59073;51.994;4.448;2022-11-27T13:35:17;3.98;;;3.98;;
71290;SDS011;59073;51.994;4.448;2022-11-27T13:38:08;3.88;;;3.88;;
71290;SDS011;59073;51.994;4.448;2022-11-27T13:40:39;3.89;;;3.89;;
71290;SDS011;59073;51.994;4.448;2022-11-27T13:43:17;3.67;;;3.67;;
71290;SDS011;59073;51.994;4.448;2022-11-27T13:45:47;3.63;;;3.63;;
71290;SDS011;59073;51.994;4.448;2022-11-27T13:48:22;3.89;;;3.89;;
71290;SDS011;59073;51.994;4.448;2022-11-27T13:50:54;4.22;;;4.22;;
71290;SDS011;59073;51.994;4.448;2022-11-27T13:53:28;4.22;;;4.22;;
71290;SDS011;59073;51.994;4.448;2022-11-27T13:55:55;4.32;;;4.32;;
71290;SDS011;59073;51.994;4.448;2022-11-27T13:58:32;4.22;;;4.22;;
71290;SDS011;59073;51.994;4.448;2022-11-27T14:03:38;4.11;;;4.08;;
71290;SDS011;59073;51.994;4.448;2022-11-27T14:06:13;3.79;;;3.79;;
71290;SDS011;59073;51.994;4.448;2022-11-27T14:14:01;3.54;;;3.54;;
71290;SDS011;59073;51.994;4.448;2022-11-27T14:16:38;3.35;;;3.35;;
71290;SDS011;59073;51.994;4.448;2022-11-27T14:19:19;3.52;;;3.52;;
71290;SDS011;59073;51.994;4.448;2022-11-27T14:21:50;3.62;;;3.62;;
71290;SDS011;59073;51.994;4.448;2022-11-27T14:24:26;3.79;;;3.79;;
71290;SDS011;59073;51.994;4.448;2022-11-27T14:27:06;3.87;;;3.87;;
71290;SDS011;59073;51.994;4.448;2022-11-27T14:29:40;3.28;;;3.28;;
71290;SDS011;59073;51.994;4.448;2022-11-27T14:32:09;3.66;;;3.66;;
71290;SDS011;59073;51.994;4.448;2022-11-27T14:34:37;3.59;;;3.59;;
71290;SDS011;59073;51.994;4.448;2022-11-27T14:37:03;4.09;;;4.09;;
71290;SDS011;59073;51.994;4.448;2022-11-27T14:39:32;4.45;;;4.45;;
71290;SDS011;59073;51.994;4.448;2022-11-27T14:42:00;4.47;;;4.47;;
71290;SDS011;59073;51.994;4.448;2022-11-27T14:44:26;4.56;;;4.56;;
71290;SDS011;59073;51.994;4.448;2022-11-27T14:46:53;5.29;;;5.28;;
71290;SDS011;59073;51.994;4.448;2022-11-27T14:49:23;5.23;;;5.20;;
71290;SDS011;59073;51.994;4.448;2022-11-27T14:51:51;5.33;;;5.33;;
71290;SDS011;59073;51.994;4.448;2022-11-27T14:54:39;5.43;;;5.42;;
71290;SDS011;59073;51.994;4.448;2022-11-27T14:57:06;5.84;;;5.84;;
71290;SDS011;59073;51.994;4.448;2022-11-27T14:59:42;5.95;;;5.95;;
71290;SDS011;59073;51.994;4.448;2022-11-27T15:04:37;7.25;;;7.25;;
71290;SDS011;59073;51.994;4.448;2022-11-27T15:07:17;6.58;;;6.58;;
71290;SDS011;59073;51.994;4.448;2022-11-27T15:09:51;6.86;;;6.86;;
71290;SDS011;59073;51.994;4.448;2022-11-27T15:12:27;6.52;;;6.52;;
71290;SDS011;59073;51.994;4.448;2022-11-27T15:15:06;7.00;;;7.00;;
71290;SDS011;59073;51.994;4.448;2022-11-27T15:17:38;6.57;;;6.57;;
71290;SDS011;59073;51.994;4.448;2022-11-27T15:20:11;6.13;;;6.13;;
71290;SDS011;59073;51.994;4.448;2022-11-27T15:22:48;5.14;;;5.14;;
71290;SDS011;59073;51.994;4.448;2022-11-27T15:25:35;5.21;;;5.18;;
71290;SDS011;59073;51.994;4.448;2022-11-27T15:28:23;5.23;;;5.18;;
71290;SDS011;59073;51.994;4.448;2022-11-27T15:30:51;4.61;;;4.61;;
71290;SDS011;59073;51.994;4.448;2022-11-27T15:33:50;4.64;;;4.64;;
71290;SDS011;59073;51.994;4.448;2022-11-27T15:36:19;4.57;;;4.57;;
71290;SDS011;59073;51.994;4.448;2022-11-27T15:38:46;4.56;;;4.55;;
71290;SDS011;59073;51.994;4.448;2022-11-27T15:41:25;4.87;;;4.85;;
71290;SDS011;59073;51.994;4.448;2022-11-27T15:43:52;5.03;;;5.02;;
71290;SDS011;59073;51.994;4.448;2022-11-27T15:46:25;4.52;;;4.50;;
71290;SDS011;59073;51.994;4.448;2022-11-27T15:48:54;4.81;;;4.81;;
71290;SDS011;59073;51.994;4.448;2022-11-27T15:51:20;4.91;;;4.88;;
71290;SDS011;59073;51.994;4.448;2022-11-27T15:53:46;4.93;;;4.90;;
71290;SDS011;59073;51.994;4.448;2022-11-27T15:56:12;5.04;;;5.04;;
71290;SDS011;59073;51.994;4.448;2022-11-27T15:58:41;5.45;;;5.44;;
71290;SDS011;59073;51.994;4.448;2022-11-27T16:01:07;5.16;;;5.16;;
71290;SDS011;59073;51.994;4.448;2022-11-27T16:03:33;5.26;;;5.26;;
71290;SDS011;59073;51.994;4.448;2022-11-27T16:06:06;5.27;;;5.27;;
71290;SDS011;59073;51.994;4.448;2022-11-27T16:08:32;5.06;;;5.05;;
71290;SDS011;59073;51.994;4.448;2022-11-27T16:11:01;5.68;;;5.64;;
71290;SDS011;59073;51.994;4.448;2022-11-27T16:13:30;5.34;;;5.30;;
71290;SDS011;59073;51.994;4.448;2022-11-27T16:15:59;5.33;;;5.30;;
71290;SDS011;59073;51.994;4.448;2022-11-27T16:18:26;4.85;;;4.81;;
71290;SDS011;59073;51.994;4.448;2022-11-27T16:20:52;5.41;;;5.37;;
71290;SDS011;59073;51.994;4.448;2022-11-27T16:23:20;5.48;;;5.46;;
71290;SDS011;59073;51.994;4.448;2022-11-27T16:25:45;5.37;;;5.34;;
71290;SDS011;59073;51.994;4.448;2022-11-27T16:28:10;4.62;;;4.62;;
71290;SDS011;59073;51.994;4.448;2022-11-27T16:30:36;5.03;;;5.03;;
71290;SDS011;59073;51.994;4.448;2022-11-27T16:33:01;4.61;;;4.61;;
71290;SDS011;59073;51.994;4.448;2022-11-27T16:35:27;4.24;;;4.24;;
71290;SDS011;59073;51.994;4.448;2022-11-27T16:37:52;5.19;;;5.19;;
71290;SDS011;59073;51.994;4.448;2022-11-27T16:40:18;4.78;;;4.78;;
71290;SDS011;59073;51.994;4.448;2022-11-27T16:42:46;4.70;;;4.70;;
71290;SDS011;59073;51.994;4.448;2022-11-27T16:45:11;5.14;;;5.14;;
71290;SDS011;59073;51.994;4.448;2022-11-27T16:47:37;5.18;;;5.18;;
71290;SDS011;59073;51.994;4.448;2022-11-27T16:50:02;4.81;;;4.81;;
71290;SDS011;59073;51.994;4.448;2022-11-27T16:52:28;4.72;;;4.72;;
71290;SDS011;59073;51.994;4.448;2022-11-27T16:54:53;5.04;;;5.04;;
71290;SDS011;59073;51.994;4.448;2022-11-27T16:57:19;4.83;;;4.83;;
71290;SDS011;59073;51.994;4.448;2022-11-27T16:59:45;4.99;;;4.96;;
71290;SDS011;59073;51.994;4.448;2022-11-27T17:02:10;4.42;;;4.42;;
71290;SDS011;59073;51.994;4.448;2022-11-27T17:07:56;4.95;;;4.95;;
71290;SDS011;59073;51.994;4.448;2022-11-27T17:10:29;4.39;;;4.37;;
71290;SDS011;59073;51.994;4.448;2022-11-27T17:12:55;4.51;;;4.47;;
71290;SDS011;59073;51.994;4.448;2022-11-27T17:15:23;4.51;;;4.49;;
71290;SDS011;59073;51.994;4.448;2022-11-27T17:17:51;4.80;;;4.79;;
71290;SDS011;59073;51.994;4.448;2022-11-27T17:20:24;4.76;;;4.74;;
71290;SDS011;59073;51.994;4.448;2022-11-27T17:26:29;4.91;;;4.88;;
71290;SDS011;59073;51.994;4.448;2022-11-27T17:29:11;4.77;;;4.76;;
71290;SDS011;59073;51.994;4.448;2022-11-27T17:32:03;4.66;;;4.64;;
71290;SDS011;59073;51.994;4.448;2022-11-27T17:34:33;5.12;;;5.12;;
71290;SDS011;59073;51.994;4.448;2022-11-27T17:37:29;5.07;;;5.04;;
